Niton, United Kingdom
Current Conditions -  °F | °C
As of 4:20 PM on Tuesday 21 Oct 2014 (Local Time) from EGHI Reporting Station
Few Clouds Few Clouds  
Wind Chill: 54°   Ceiling: Unl
Heat Index: 54°   Visibility: 6mi
Dew Point: 37°   Wind: 15mph
Humidity: 54%   Direction: 280°W
Pressure: 29.91"   Gusts: 30mph
Location:  50.59°N, 1.28°W
Report Text: EGHI 211520Z 28013G26KT 230V330 9999 FEW047 12/03 Q1013
Loading
Personal Weather Stations






























Interactive Weather Map
Tropical Storm Tracking
New forecast layout! Learn more

10-Day Weather Forecast

Advertisements
Track Severe Weather on mobile